createdAt,value
2019-06-27T00:00:02.044Z,99.9
2019-06-27T00:05:02.931Z,99.9
2019-06-27T00:10:02.028Z,99.9
2019-06-27T00:15:03.130Z,99.9
2019-06-27T00:20:02.063Z,99.9
2019-06-27T00:25:03.393Z,99.9
2019-06-27T00:30:02.199Z,99.9
2019-06-27T00:35:01.613Z,99.9
2019-06-27T00:40:02.633Z,99.9
2019-06-27T00:45:01.905Z,99.9
2019-06-27T00:50:02.730Z,99.9
2019-06-27T00:55:02.130Z,99.9
2019-06-27T01:00:03.559Z,99.9
2019-06-27T01:05:02.022Z,99.9
2019-06-27T01:10:02.855Z,99.9
2019-06-27T01:15:01.661Z,99.9
2019-06-27T01:20:02.958Z,99.9
2019-06-27T01:25:01.759Z,99.9
2019-06-27T01:30:02.837Z,99.9
2019-06-27T01:35:04.568Z,99.9
2019-06-27T01:40:05.240Z,99.9
2019-06-27T01:45:02.029Z,99.9
2019-06-27T01:50:02.924Z,99.9
2019-06-27T01:55:01.863Z,99.9
2019-06-27T02:00:03.213Z,99.9
2019-06-27T02:05:02.060Z,99.9
2019-06-27T02:10:03.140Z,99.9
2019-06-27T02:15:01.844Z,99.9
2019-06-27T02:20:02.803Z,99.9
2019-06-27T02:25:01.794Z,99.9
2019-06-27T02:30:02.807Z,99.9
2019-06-27T02:35:06.895Z,99.9
2019-06-27T02:40:02.596Z,99.9
2019-06-27T02:45:01.880Z,99.9
2019-06-27T02:50:02.869Z,99.9
2019-06-27T02:55:01.796Z,99.9
2019-06-27T03:00:03.017Z,99.9
2019-06-27T03:05:02.128Z,99.9
2019-06-27T03:10:05.234Z,99.9
2019-06-27T03:15:01.865Z,99.9
2019-06-27T03:20:02.653Z,99.9
2019-06-27T03:25:01.736Z,99.9
2019-06-27T03:30:02.832Z,99.9
2019-06-27T03:35:01.821Z,99.9
2019-06-27T03:40:05.412Z,99.9
2019-06-27T03:45:01.750Z,99.9
2019-06-27T03:50:02.802Z,99.9
2019-06-27T03:55:01.878Z,99.9
2019-06-27T04:00:03.291Z,99.9
2019-06-27T04:05:02.059Z,99.9
2019-06-27T04:10:03.019Z,99.9
2019-06-27T04:15:02.123Z,99.9
2019-06-27T04:20:03.300Z,99.9
2019-06-27T04:25:02.282Z,99.9
2019-06-27T04:30:03.337Z,99.9
2019-06-27T04:35:02.155Z,99.9
2019-06-27T04:40:11.097Z,99.9
2019-06-27T04:45:02.186Z,99.9
2019-06-27T04:50:03.438Z,99.9
2019-06-27T04:55:04.482Z,99.9
2019-06-27T05:00:03.262Z,99.9
2019-06-27T05:05:02.762Z,99.9
2019-06-27T05:10:04.116Z,99.9
2019-06-27T05:15:02.583Z,99.9
2019-06-27T05:20:03.628Z,99.9
2019-06-27T05:25:02.908Z,99.9
2019-06-27T05:30:10.646Z,99.9
2019-06-27T05:35:02.888Z,99.9
2019-06-27T05:40:01.884Z,99.9
2019-06-27T05:45:03.117Z,99.9
2019-06-27T05:50:01.905Z,99.9
2019-06-27T05:55:02.853Z,99.9
2019-06-27T06:00:02.005Z,99.9
2019-06-27T06:05:02.883Z,99.9
2019-06-27T06:10:12.181Z,99.9
2019-06-27T06:15:03.124Z,99.9
2019-06-27T06:20:04.535Z,99.9
2019-06-27T06:25:03.377Z,99.9
2019-06-27T06:30:02.471Z,99.9
2019-06-27T06:35:01.746Z,99.9
2019-06-27T06:40:02.610Z,99.9
2019-06-27T06:45:04.349Z,99.9
2019-06-27T06:50:02.905Z,99.9
2019-06-27T06:55:02.188Z,99.9
2019-06-27T07:00:02.878Z,99.9
2019-06-27T07:05:02.013Z,99.9
2019-06-27T07:10:03.081Z,99.9
2019-06-27T07:15:04.524Z,99.9
2019-06-27T07:20:03.256Z,99.9
2019-06-27T07:25:02.211Z,99.9
2019-06-27T07:30:03.206Z,99.9
2019-06-27T07:35:02.089Z,99.9
2019-06-27T07:40:16.053Z,99.9
2019-06-27T07:45:02.472Z,99.9
2019-06-27T07:50:03.475Z,99.9
2019-06-27T07:55:02.231Z,99.9
2019-06-27T08:00:03.541Z,99.9
2019-06-27T08:05:01.958Z,99.9
2019-06-27T08:10:03.045Z,99.9
2019-06-27T08:15:01.836Z,99
2019-06-27T08:20:02.887Z,99.9
2019-06-27T08:25:01.868Z,98.3
2019-06-27T08:30:02.839Z,99.9
2019-06-27T08:35:01.976Z,96.6
2019-06-27T08:40:02.792Z,98
2019-06-27T08:45:01.757Z,90.9
2019-06-27T08:50:02.932Z,92.5
2019-06-27T08:55:01.667Z,93.3
2019-06-27T09:00:02.762Z,91.5
2019-06-27T09:05:01.795Z,97.2
2019-06-27T09:10:02.770Z,95.1
2019-06-27T09:15:01.847Z,96.5
2019-06-27T09:20:02.873Z,96.5
2019-06-27T09:25:02.274Z,93.1
2019-06-27T09:30:02.827Z,91.5
2019-06-27T09:35:01.687Z,84.6
2019-06-27T09:40:02.634Z,83.6
2019-06-27T09:45:01.823Z,89.9
2019-06-27T09:50:02.511Z,88.6
2019-06-27T09:55:02.087Z,83.5
2019-06-27T10:00:02.875Z,90.8
2019-06-27T10:05:01.660Z,90.3
2019-06-27T10:10:02.883Z,91.3
2019-06-27T10:15:01.917Z,90.1
2019-06-27T10:20:02.862Z,87.7
2019-06-27T10:25:02.062Z,74.9
2019-06-27T10:30:03.205Z,79.2
2019-06-27T10:35:02.062Z,78.5
2019-06-27T10:40:03.037Z,81.1
2019-06-27T10:45:02.393Z,79.1
2019-06-27T10:50:03.231Z,80.2
2019-06-27T10:55:02.164Z,71.3
2019-06-27T11:00:05.906Z,61.9
2019-06-27T11:05:02.131Z,61.7
2019-06-27T11:10:01.544Z,61.1
2019-06-27T11:15:02.528Z,58.8
2019-06-27T11:20:01.581Z,57.6
2019-06-27T11:25:04.944Z,56.4
2019-06-27T11:30:01.829Z,56.4
2019-06-27T11:35:02.674Z,57.3
2019-06-27T11:40:01.949Z,57.3
2019-06-27T11:45:03.074Z,55.3
2019-06-27T11:50:02.013Z,54.6
2019-06-27T11:55:03.119Z,53.9
2019-06-27T12:00:02.084Z,52.2
2019-06-27T12:05:02.863Z,53.4
2019-06-27T12:10:01.955Z,53.8
2019-06-27T12:15:02.852Z,53.7
2019-06-27T12:20:06.930Z,52.7
2019-06-27T12:25:02.834Z,52.8
2019-06-27T12:30:01.729Z,51.9
2019-06-27T12:35:03.077Z,51
2019-06-27T12:40:02.279Z,52.8
2019-06-27T12:45:03.130Z,52.7
2019-06-27T12:50:03.539Z,53.6
2019-06-27T12:55:03.153Z,53.3
2019-06-27T13:00:02.462Z,52.6
2019-06-27T13:05:02.855Z,51.7
2019-06-27T13:10:01.659Z,51.9
2019-06-27T13:15:02.707Z,51.8
2019-06-27T13:20:02.944Z,49.8
2019-06-27T13:25:05.222Z,45
2019-06-27T13:30:01.856Z,45
2019-06-27T13:35:03.136Z,46.3
2019-06-27T13:40:04.988Z,45.1
2019-06-27T13:45:03.266Z,44.6
2019-06-27T13:50:01.951Z,44.8
2019-06-27T13:55:03.154Z,43.6
2019-06-27T14:00:01.834Z,43.4
2019-06-27T14:05:02.959Z,41.5
2019-06-27T14:10:04.652Z,41.4
2019-06-27T14:15:03.181Z,41.3
2019-06-27T14:20:02.181Z,41.9
2019-06-27T14:25:02.998Z,42.7
2019-06-27T14:30:01.842Z,42.1
2019-06-27T14:35:16.501Z,41.7
2019-06-27T14:40:01.922Z,41.6
2019-06-27T14:45:03.040Z,42.7
2019-06-27T14:50:01.998Z,44
2019-06-27T14:55:13.575Z,43.9
2019-06-27T15:00:02.500Z,43.9
2019-06-27T15:05:01.570Z,44.2
2019-06-27T15:10:02.738Z,43.8
2019-06-27T15:15:01.891Z,43.4
2019-06-27T15:20:03.082Z,46
2019-06-27T15:25:01.978Z,46.7
2019-06-27T15:30:03.271Z,44.4
2019-06-27T15:35:04.792Z,45.7
2019-06-27T15:40:01.730Z,45.6
2019-06-27T15:45:03.129Z,46.5
2019-06-27T15:50:01.994Z,46.7
2019-06-27T15:55:02.967Z,46.8
2019-06-27T16:00:01.942Z,46.8
2019-06-27T16:05:03.092Z,46.9
2019-06-27T16:10:02.127Z,46.9
2019-06-27T16:15:03.078Z,46.6
2019-06-27T16:20:04.563Z,47.1
2019-06-27T16:25:03.326Z,47.2
2019-06-27T16:30:02.246Z,48
2019-06-27T16:35:03.124Z,48.3
2019-06-27T16:40:02.044Z,48.3
2019-06-27T16:45:05.605Z,49.1
2019-06-27T16:50:01.996Z,49.1
2019-06-27T16:55:03.412Z,50.5
2019-06-27T17:00:02.092Z,50.1
2019-06-27T17:05:06.085Z,50.2
2019-06-27T17:10:02.060Z,50.3
2019-06-27T17:15:03.034Z,50.2
2019-06-27T17:20:01.952Z,51.5
2019-06-27T17:25:03.093Z,51.9
2019-06-27T17:30:02.229Z,52
2019-06-27T17:35:02.998Z,52.4
2019-06-27T17:40:02.120Z,53.1
2019-06-27T17:45:05.248Z,53.8
2019-06-27T17:50:02.162Z,53.8
2019-06-27T17:55:03.157Z,54.9
2019-06-27T18:00:01.912Z,56.4
2019-06-27T18:05:02.254Z,56.7
2019-06-27T18:10:01.549Z,57.8
2019-06-27T18:15:02.420Z,58.5
2019-06-27T18:20:01.565Z,59.3
2019-06-27T18:25:02.575Z,61.5
2019-06-27T18:30:01.863Z,63.8
2019-06-27T18:35:02.939Z,65.5
2019-06-27T18:40:02.012Z,67.7
2019-06-27T18:45:03.312Z,69.7
2019-06-27T18:50:02.073Z,72
2019-06-27T18:55:03.010Z,73.9
2019-06-27T19:00:02.262Z,77.9
2019-06-27T19:05:05.682Z,80.3
2019-06-27T19:10:02.228Z,83.9
2019-06-27T19:15:03.076Z,87.5
2019-06-27T19:20:02.168Z,89.1
2019-06-27T19:25:03.088Z,90.9
2019-06-27T19:30:02.109Z,91.5
2019-06-27T19:35:03.069Z,92.9
2019-06-27T19:40:02.049Z,94.8
2019-06-27T19:45:03.081Z,96.2
2019-06-27T19:50:07.090Z,98.9
2019-06-27T19:55:03.109Z,98.9
2019-06-27T20:00:01.911Z,99.9
2019-06-27T20:05:02.816Z,99.9
2019-06-27T20:10:01.966Z,99.9
2019-06-27T20:15:02.964Z,99.9
2019-06-27T20:20:02.039Z,99.9
2019-06-27T20:25:02.725Z,99.9
2019-06-27T20:30:01.882Z,99.9
2019-06-27T20:35:02.970Z,99.9
2019-06-27T20:40:02.045Z,99.9
2019-06-27T20:45:03.034Z,99.9
2019-06-27T20:50:01.874Z,99.9
2019-06-27T20:55:02.514Z,99.9
2019-06-27T21:00:01.585Z,99.9
2019-06-27T21:05:02.837Z,99.9
2019-06-27T21:10:01.612Z,99.9
2019-06-27T21:15:02.425Z,99.9
2019-06-27T21:20:01.917Z,99.9
2019-06-27T21:25:02.548Z,99.9
2019-06-27T21:30:01.719Z,99.9
2019-06-27T21:35:02.494Z,99.9
2019-06-27T21:40:01.501Z,99.9
2019-06-27T21:45:02.703Z,99.9
2019-06-27T21:50:02.055Z,99.9
2019-06-27T21:55:03.400Z,99.9
2019-06-27T22:00:02.219Z,99.9
2019-06-27T22:05:13.618Z,99.9
2019-06-27T22:10:02.241Z,99.9
2019-06-27T22:15:03.534Z,99.9
2019-06-27T22:20:16.004Z,99.9
2019-06-27T22:25:02.982Z,99.9
2019-06-27T22:30:01.795Z,99.9
2019-06-27T22:35:02.894Z,99.9
2019-06-27T22:40:01.775Z,99.9
2019-06-27T22:45:02.854Z,99.9
2019-06-27T22:50:01.734Z,99.9
2019-06-27T22:55:02.516Z,99.9
2019-06-27T23:00:01.919Z,99.9
2019-06-27T23:05:02.870Z,99.9
2019-06-27T23:10:01.705Z,99.9
2019-06-27T23:15:02.625Z,99.9
2019-06-27T23:20:01.799Z,99.9
2019-06-27T23:25:02.880Z,99.9
2019-06-27T23:30:02.135Z,99.9
2019-06-27T23:35:03.067Z,99.9
2019-06-27T23:40:15.106Z,99.9
2019-06-27T23:45:03.040Z,99.9
2019-06-27T23:50:02.064Z,99.9
2019-06-27T23:55:03.042Z,99.9
